sensor_id;sensor_type;location;lat;lon;timestamp;P1;durP1;ratioP1;P2;durP2;ratioP2
49175;SDS011;35012;47.200;9.748;2023-04-30T00:01:40;1.90;;;1.70;;
49175;SDS011;35012;47.200;9.748;2023-04-30T00:04:06;2.10;;;1.50;;
49175;SDS011;35012;47.200;9.748;2023-04-30T00:06:31;2.00;;;1.73;;
49175;SDS011;35012;47.200;9.748;2023-04-30T00:08:56;3.07;;;1.80;;
49175;SDS011;35012;47.200;9.748;2023-04-30T00:11:22;2.57;;;1.60;;
49175;SDS011;35012;47.200;9.748;2023-04-30T00:13:49;2.33;;;1.53;;
49175;SDS011;35012;47.200;9.748;2023-04-30T00:16:16;3.70;;;1.87;;
49175;SDS011;35012;47.200;9.748;2023-04-30T00:18:41;3.13;;;1.70;;
49175;SDS011;35012;47.200;9.748;2023-04-30T00:21:07;2.73;;;1.40;;
49175;SDS011;35012;47.200;9.748;2023-04-30T00:23:32;2.10;;;1.40;;
49175;SDS011;35012;47.200;9.748;2023-04-30T00:25:58;2.50;;;1.20;;
49175;SDS011;35012;47.200;9.748;2023-04-30T00:28:23;5.33;;;2.00;;
49175;SDS011;35012;47.200;9.748;2023-04-30T00:30:49;5.53;;;1.60;;
49175;SDS011;35012;47.200;9.748;2023-04-30T00:33:14;2.90;;;1.60;;
49175;SDS011;35012;47.200;9.748;2023-04-30T00:35:40;5.17;;;1.53;;
49175;SDS011;35012;47.200;9.748;2023-04-30T00:38:05;3.13;;;1.67;;
49175;SDS011;35012;47.200;9.748;2023-04-30T00:40:32;1.97;;;1.40;;
49175;SDS011;35012;47.200;9.748;2023-04-30T00:42:59;2.37;;;1.47;;
49175;SDS011;35012;47.200;9.748;2023-04-30T00:45:24;2.30;;;1.63;;
49175;SDS011;35012;47.200;9.748;2023-04-30T00:47:50;7.07;;;2.00;;
49175;SDS011;35012;47.200;9.748;2023-04-30T00:50:15;2.03;;;1.80;;
49175;SDS011;35012;47.200;9.748;2023-04-30T00:52:41;2.20;;;2.00;;
49175;SDS011;35012;47.200;9.748;2023-04-30T00:55:08;3.90;;;1.83;;
49175;SDS011;35012;47.200;9.748;2023-04-30T00:57:37;2.33;;;1.50;;
49175;SDS011;35012;47.200;9.748;2023-04-30T01:00:03;2.87;;;1.80;;
49175;SDS011;35012;47.200;9.748;2023-04-30T01:02:29;2.17;;;1.87;;
49175;SDS011;35012;47.200;9.748;2023-04-30T01:04:55;5.63;;;1.80;;
49175;SDS011;35012;47.200;9.748;2023-04-30T01:07:21;3.50;;;1.87;;
49175;SDS011;35012;47.200;9.748;2023-04-30T01:09:47;2.93;;;1.50;;
49175;SDS011;35012;47.200;9.748;2023-04-30T01:12:15;3.23;;;1.73;;
49175;SDS011;35012;47.200;9.748;2023-04-30T01:20:00;3.00;;;1.40;;
49175;SDS011;35012;47.200;9.748;2023-04-30T01:30:01;2.17;;;1.40;;
49175;SDS011;35012;47.200;9.748;2023-04-30T01:32:27;2.10;;;1.20;;
49175;SDS011;35012;47.200;9.748;2023-04-30T01:34:53;4.77;;;1.57;;
49175;SDS011;35012;47.200;9.748;2023-04-30T01:37:30;2.23;;;1.53;;
49175;SDS011;35012;47.200;9.748;2023-04-30T01:46:05;1.23;;;1.10;;
49175;SDS011;35012;47.200;9.748;2023-04-30T01:48:39;1.63;;;1.30;;
49175;SDS011;35012;47.200;9.748;2023-04-30T01:51:14;1.63;;;1.30;;
49175;SDS011;35012;47.200;9.748;2023-04-30T01:53:44;2.03;;;1.10;;
49175;SDS011;35012;47.200;9.748;2023-04-30T01:56:26;2.57;;;1.30;;
49175;SDS011;35012;47.200;9.748;2023-04-30T01:58:54;1.80;;;1.30;;
49175;SDS011;35012;47.200;9.748;2023-04-30T02:01:29;1.40;;;1.30;;
49175;SDS011;35012;47.200;9.748;2023-04-30T02:03:56;1.20;;;1.00;;
49175;SDS011;35012;47.200;9.748;2023-04-30T02:06:25;2.53;;;1.40;;
49175;SDS011;35012;47.200;9.748;2023-04-30T02:08:54;1.47;;;1.30;;
49175;SDS011;35012;47.200;9.748;2023-04-30T02:11:20;2.93;;;1.27;;
49175;SDS011;35012;47.200;9.748;2023-04-30T02:13:48;3.50;;;1.40;;
49175;SDS011;35012;47.200;9.748;2023-04-30T02:16:14;2.30;;;1.20;;
49175;SDS011;35012;47.200;9.748;2023-04-30T02:18:40;1.43;;;1.20;;
49175;SDS011;35012;47.200;9.748;2023-04-30T02:21:06;3.10;;;1.10;;
49175;SDS011;35012;47.200;9.748;2023-04-30T02:23:31;1.90;;;1.33;;
49175;SDS011;35012;47.200;9.748;2023-04-30T02:25:57;3.23;;;1.40;;
49175;SDS011;35012;47.200;9.748;2023-04-30T02:28:22;2.57;;;1.17;;
49175;SDS011;35012;47.200;9.748;2023-04-30T02:30:48;3.80;;;1.23;;
49175;SDS011;35012;47.200;9.748;2023-04-30T02:33:13;2.73;;;1.10;;
49175;SDS011;35012;47.200;9.748;2023-04-30T02:35:40;2.77;;;1.10;;
49175;SDS011;35012;47.200;9.748;2023-04-30T02:38:05;3.43;;;1.30;;
49175;SDS011;35012;47.200;9.748;2023-04-30T02:40:31;2.67;;;1.47;;
49175;SDS011;35012;47.200;9.748;2023-04-30T02:42:57;1.87;;;1.27;;
49175;SDS011;35012;47.200;9.748;2023-04-30T02:45:23;1.20;;;1.10;;
49175;SDS011;35012;47.200;9.748;2023-04-30T02:47:48;3.27;;;1.20;;
49175;SDS011;35012;47.200;9.748;2023-04-30T02:50:14;1.30;;;1.00;;
49175;SDS011;35012;47.200;9.748;2023-04-30T02:52:40;4.43;;;1.20;;
49175;SDS011;35012;47.200;9.748;2023-04-30T02:55:05;1.70;;;1.27;;
49175;SDS011;35012;47.200;9.748;2023-04-30T02:57:31;1.27;;;1.03;;
49175;SDS011;35012;47.200;9.748;2023-04-30T02:59:57;1.47;;;1.27;;
49175;SDS011;35012;47.200;9.748;2023-04-30T03:02:22;1.70;;;1.30;;
49175;SDS011;35012;47.200;9.748;2023-04-30T03:04:48;2.83;;;1.20;;
49175;SDS011;35012;47.200;9.748;2023-04-30T03:07:14;1.50;;;1.23;;
49175;SDS011;35012;47.200;9.748;2023-04-30T03:09:39;2.33;;;1.40;;
49175;SDS011;35012;47.200;9.748;2023-04-30T03:12:05;2.57;;;1.50;;
49175;SDS011;35012;47.200;9.748;2023-04-30T03:14:30;2.00;;;1.30;;
49175;SDS011;35012;47.200;9.748;2023-04-30T03:16:56;2.73;;;1.00;;
49175;SDS011;35012;47.200;9.748;2023-04-30T03:19:21;2.53;;;1.30;;
49175;SDS011;35012;47.200;9.748;2023-04-30T03:21:49;2.37;;;1.23;;
49175;SDS011;35012;47.200;9.748;2023-04-30T03:24:16;1.87;;;1.53;;
49175;SDS011;35012;47.200;9.748;2023-04-30T03:26:42;4.33;;;1.30;;
49175;SDS011;35012;47.200;9.748;2023-04-30T03:29:07;1.93;;;1.10;;
49175;SDS011;35012;47.200;9.748;2023-04-30T03:31:33;2.40;;;1.23;;
49175;SDS011;35012;47.200;9.748;2023-04-30T03:33:58;3.23;;;1.10;;
49175;SDS011;35012;47.200;9.748;2023-04-30T03:36:24;2.47;;;1.10;;
49175;SDS011;35012;47.200;9.748;2023-04-30T03:38:50;2.47;;;1.20;;
49175;SDS011;35012;47.200;9.748;2023-04-30T03:41:16;0.97;;;0.83;;
49175;SDS011;35012;47.200;9.748;2023-04-30T03:43:41;4.07;;;1.20;;
49175;SDS011;35012;47.200;9.748;2023-04-30T03:46:07;2.63;;;1.17;;
49175;SDS011;35012;47.200;9.748;2023-04-30T03:48:32;3.00;;;0.90;;
49175;SDS011;35012;47.200;9.748;2023-04-30T03:50:58;1.50;;;1.10;;
49175;SDS011;35012;47.200;9.748;2023-04-30T03:53:23;1.40;;;1.10;;
49175;SDS011;35012;47.200;9.748;2023-04-30T03:55:50;1.77;;;1.00;;
49175;SDS011;35012;47.200;9.748;2023-04-30T03:58:16;0.80;;;0.80;;
49175;SDS011;35012;47.200;9.748;2023-04-30T04:00:42;2.30;;;1.00;;
49175;SDS011;35012;47.200;9.748;2023-04-30T04:03:09;2.30;;;1.07;;
49175;SDS011;35012;47.200;9.748;2023-04-30T04:05:35;2.23;;;0.90;;
49175;SDS011;35012;47.200;9.748;2023-04-30T04:08:01;2.30;;;1.10;;
49175;SDS011;35012;47.200;9.748;2023-04-30T04:10:26;3.70;;;1.30;;
49175;SDS011;35012;47.200;9.748;2023-04-30T04:12:52;1.40;;;1.00;;
49175;SDS011;35012;47.200;9.748;2023-04-30T04:15:18;3.33;;;0.90;;
49175;SDS011;35012;47.200;9.748;2023-04-30T04:17:43;1.33;;;0.87;;
49175;SDS011;35012;47.200;9.748;2023-04-30T04:20:09;1.83;;;1.00;;
49175;SDS011;35012;47.200;9.748;2023-04-30T04:22:35;1.93;;;1.07;;
49175;SDS011;35012;47.200;9.748;2023-04-30T04:25:00;2.97;;;1.10;;
49175;SDS011;35012;47.200;9.748;2023-04-30T04:27:26;2.30;;;1.10;;
49175;SDS011;35012;47.200;9.748;2023-04-30T04:29:51;4.73;;;1.57;;
49175;SDS011;35012;47.200;9.748;2023-04-30T04:32:18;1.90;;;1.40;;
49175;SDS011;35012;47.200;9.748;2023-04-30T04:34:44;2.73;;;1.20;;
49175;SDS011;35012;47.200;9.748;2023-04-30T04:37:10;3.30;;;2.10;;
49175;SDS011;35012;47.200;9.748;2023-04-30T04:39:35;4.47;;;2.00;;
49175;SDS011;35012;47.200;9.748;2023-04-30T04:42:01;2.43;;;1.40;;
49175;SDS011;35012;47.200;9.748;2023-04-30T04:44:27;1.83;;;1.60;;
49175;SDS011;35012;47.200;9.748;2023-04-30T04:46:53;3.17;;;1.43;;
49175;SDS011;35012;47.200;9.748;2023-04-30T04:49:20;2.60;;;1.60;;
49175;SDS011;35012;47.200;9.748;2023-04-30T04:51:46;2.57;;;1.57;;
49175;SDS011;35012;47.200;9.748;2023-04-30T04:54:11;4.37;;;1.63;;
49175;SDS011;35012;47.200;9.748;2023-04-30T04:56:37;2.60;;;1.60;;
49175;SDS011;35012;47.200;9.748;2023-04-30T04:59:02;3.70;;;1.70;;
49175;SDS011;35012;47.200;9.748;2023-04-30T05:01:28;3.50;;;1.50;;
49175;SDS011;35012;47.200;9.748;2023-04-30T05:03:53;4.47;;;1.60;;
49175;SDS011;35012;47.200;9.748;2023-04-30T05:06:19;1.97;;;1.30;;
49175;SDS011;35012;47.200;9.748;2023-04-30T05:08:44;3.43;;;1.60;;
49175;SDS011;35012;47.200;9.748;2023-04-30T05:11:10;3.13;;;1.90;;
49175;SDS011;35012;47.200;9.748;2023-04-30T05:13:36;2.87;;;1.80;;
49175;SDS011;35012;47.200;9.748;2023-04-30T05:16:01;3.27;;;1.90;;
49175;SDS011;35012;47.200;9.748;2023-04-30T05:18:27;3.03;;;1.70;;
49175;SDS011;35012;47.200;9.748;2023-04-30T05:20:53;3.97;;;1.50;;
49175;SDS011;35012;47.200;9.748;2023-04-30T05:23:18;1.93;;;1.13;;
49175;SDS011;35012;47.200;9.748;2023-04-30T05:25:44;3.47;;;1.20;;
49175;SDS011;35012;47.200;9.748;2023-04-30T05:28:10;1.80;;;1.17;;
49175;SDS011;35012;47.200;9.748;2023-04-30T05:30:36;3.93;;;1.13;;
49175;SDS011;35012;47.200;9.748;2023-04-30T05:33:01;7.27;;;1.30;;
49175;SDS011;35012;47.200;9.748;2023-04-30T05:35:27;1.70;;;1.03;;
49175;SDS011;35012;47.200;9.748;2023-04-30T05:37:54;3.60;;;1.07;;
49175;SDS011;35012;47.200;9.748;2023-04-30T05:40:20;1.70;;;1.00;;
49175;SDS011;35012;47.200;9.748;2023-04-30T05:42:45;2.57;;;1.00;;
49175;SDS011;35012;47.200;9.748;2023-04-30T05:45:11;1.13;;;0.90;;
49175;SDS011;35012;47.200;9.748;2023-04-30T05:47:41;2.47;;;1.00;;
49175;SDS011;35012;47.200;9.748;2023-04-30T05:50:08;4.00;;;2.07;;
49175;SDS011;35012;47.200;9.748;2023-04-30T05:52:34;3.00;;;1.47;;
49175;SDS011;35012;47.200;9.748;2023-04-30T05:54:59;1.37;;;1.10;;
49175;SDS011;35012;47.200;9.748;2023-04-30T05:57:25;1.07;;;0.83;;
49175;SDS011;35012;47.200;9.748;2023-04-30T05:59:51;2.33;;;1.07;;
49175;SDS011;35012;47.200;9.748;2023-04-30T06:02:17;1.77;;;0.80;;
49175;SDS011;35012;47.200;9.748;2023-04-30T06:04:43;0.97;;;0.73;;
49175;SDS011;35012;47.200;9.748;2023-04-30T06:07:08;1.00;;;0.87;;
49175;SDS011;35012;47.200;9.748;2023-04-30T06:09:34;1.87;;;0.80;;
49175;SDS011;35012;47.200;9.748;2023-04-30T06:11:59;2.43;;;1.80;;
49175;SDS011;35012;47.200;9.748;2023-04-30T06:14:26;2.27;;;0.87;;
49175;SDS011;35012;47.200;9.748;2023-04-30T06:16:52;2.00;;;0.80;;
49175;SDS011;35012;47.200;9.748;2023-04-30T06:19:18;2.33;;;0.90;;
49175;SDS011;35012;47.200;9.748;2023-04-30T06:21:43;0.73;;;0.73;;
49175;SDS011;35012;47.200;9.748;2023-04-30T06:24:09;0.90;;;0.70;;
49175;SDS011;35012;47.200;9.748;2023-04-30T06:26:34;2.67;;;0.87;;
49175;SDS011;35012;47.200;9.748;2023-04-30T06:29:00;2.80;;;0.90;;
49175;SDS011;35012;47.200;9.748;2023-04-30T06:31:26;2.80;;;0.80;;
49175;SDS011;35012;47.200;9.748;2023-04-30T06:33:51;2.37;;;0.80;;
49175;SDS011;35012;47.200;9.748;2023-04-30T06:36:17;2.77;;;1.00;;
49175;SDS011;35012;47.200;9.748;2023-04-30T06:38:43;2.37;;;0.90;;
49175;SDS011;35012;47.200;9.748;2023-04-30T06:41:10;1.00;;;0.80;;
49175;SDS011;35012;47.200;9.748;2023-04-30T06:43:36;0.80;;;0.80;;
49175;SDS011;35012;47.200;9.748;2023-04-30T06:46:01;1.30;;;0.87;;
49175;SDS011;35012;47.200;9.748;2023-04-30T06:48:28;1.90;;;0.80;;
49175;SDS011;35012;47.200;9.748;2023-04-30T06:50:53;2.57;;;0.90;;
49175;SDS011;35012;47.200;9.748;2023-04-30T06:53:19;1.10;;;0.70;;
49175;SDS011;35012;47.200;9.748;2023-04-30T06:55:44;2.60;;;0.87;;
49175;SDS011;35012;47.200;9.748;2023-04-30T06:58:12;2.70;;;0.90;;
49175;SDS011;35012;47.200;9.748;2023-04-30T07:00:38;1.53;;;0.70;;
49175;SDS011;35012;47.200;9.748;2023-04-30T07:03:04;0.87;;;0.60;;
49175;SDS011;35012;47.200;9.748;2023-04-30T07:05:29;1.13;;;0.80;;
49175;SDS011;35012;47.200;9.748;2023-04-30T07:07:56;0.80;;;0.63;;
49175;SDS011;35012;47.200;9.748;2023-04-30T07:10:22;1.20;;;0.90;;
49175;SDS011;35012;47.200;9.748;2023-04-30T07:12:48;0.93;;;0.70;;
49175;SDS011;35012;47.200;9.748;2023-04-30T07:15:13;1.40;;;0.70;;
49175;SDS011;35012;47.200;9.748;2023-04-30T07:17:39;1.23;;;0.87;;
49175;SDS011;35012;47.200;9.748;2023-04-30T07:20:06;1.23;;;0.80;;
49175;SDS011;35012;47.200;9.748;2023-04-30T07:22:32;2.23;;;0.90;;
49175;SDS011;35012;47.200;9.748;2023-04-30T07:24:58;1.33;;;0.70;;
49175;SDS011;35012;47.200;9.748;2023-04-30T07:27:25;1.53;;;0.73;;
49175;SDS011;35012;47.200;9.748;2023-04-30T07:29:51;2.67;;;0.90;;
49175;SDS011;35012;47.200;9.748;2023-04-30T07:32:16;1.23;;;0.80;;
49175;SDS011;35012;47.200;9.748;2023-04-30T07:34:42;2.80;;;0.60;;
49175;SDS011;35012;47.200;9.748;2023-04-30T07:37:08;1.17;;;0.97;;
49175;SDS011;35012;47.200;9.748;2023-04-30T07:39:34;1.30;;;0.70;;
49175;SDS011;35012;47.200;9.748;2023-04-30T07:42:01;1.10;;;0.90;;
49175;SDS011;35012;47.200;9.748;2023-04-30T07:44:28;1.10;;;0.70;;
49175;SDS011;35012;47.200;9.748;2023-04-30T07:46:53;2.33;;;1.00;;
49175;SDS011;35012;47.200;9.748;2023-04-30T07:49:19;1.00;;;0.90;;
49175;SDS011;35012;47.200;9.748;2023-04-30T07:51:45;5.13;;;1.10;;
49175;SDS011;35012;47.200;9.748;2023-04-30T07:54:10;1.57;;;1.07;;
49175;SDS011;35012;47.200;9.748;2023-04-30T07:56:36;1.33;;;0.87;;
49175;SDS011;35012;47.200;9.748;2023-04-30T07:59:02;1.53;;;0.90;;
49175;SDS011;35012;47.200;9.748;2023-04-30T08:01:27;2.23;;;1.00;;
49175;SDS011;35012;47.200;9.748;2023-04-30T08:03:52;1.70;;;0.80;;
49175;SDS011;35012;47.200;9.748;2023-04-30T08:06:18;0.80;;;0.80;;
49175;SDS011;35012;47.200;9.748;2023-04-30T08:08:43;1.00;;;0.80;;
49175;SDS011;35012;47.200;9.748;2023-04-30T08:11:10;1.60;;;1.00;;
49175;SDS011;35012;47.200;9.748;2023-04-30T08:13:36;3.30;;;1.20;;
49175;SDS011;35012;47.200;9.748;2023-04-30T08:16:01;3.03;;;1.30;;
49175;SDS011;35012;47.200;9.748;2023-04-30T08:18:28;3.07;;;1.90;;
49175;SDS011;35012;47.200;9.748;2023-04-30T08:20:53;3.77;;;1.90;;
49175;SDS011;35012;47.200;9.748;2023-04-30T08:23:19;2.27;;;2.07;;
49175;SDS011;35012;47.200;9.748;2023-04-30T08:25:45;2.60;;;1.77;;
49175;SDS011;35012;47.200;9.748;2023-04-30T08:28:10;2.47;;;2.27;;
49175;SDS011;35012;47.200;9.748;2023-04-30T08:30:36;2.83;;;1.80;;
49175;SDS011;35012;47.200;9.748;2023-04-30T08:33:01;2.33;;;2.13;;
49175;SDS011;35012;47.200;9.748;2023-04-30T08:35:27;2.43;;;2.23;;
49175;SDS011;35012;47.200;9.748;2023-04-30T08:37:54;2.50;;;2.20;;
49175;SDS011;35012;47.200;9.748;2023-04-30T08:40:19;2.40;;;1.80;;
49175;SDS011;35012;47.200;9.748;2023-04-30T08:42:47;2.17;;;1.80;;
49175;SDS011;35012;47.200;9.748;2023-04-30T08:45:15;2.57;;;2.00;;
49175;SDS011;35012;47.200;9.748;2023-04-30T08:47:40;3.07;;;1.90;;
49175;SDS011;35012;47.200;9.748;2023-04-30T08:50:07;2.17;;;1.97;;
49175;SDS011;35012;47.200;9.748;2023-04-30T08:52:33;1.83;;;1.73;;
49175;SDS011;35012;47.200;9.748;2023-04-30T08:55:02;2.50;;;1.77;;
49175;SDS011;35012;47.200;9.748;2023-04-30T08:57:31;4.27;;;1.80;;
49175;SDS011;35012;47.200;9.748;2023-04-30T08:59:57;2.40;;;2.10;;
49175;SDS011;35012;47.200;9.748;2023-04-30T09:02:22;2.20;;;2.00;;
49175;SDS011;35012;47.200;9.748;2023-04-30T09:04:48;2.87;;;2.27;;
49175;SDS011;35012;47.200;9.748;2023-04-30T09:07:14;2.53;;;2.23;;
49175;SDS011;35012;47.200;9.748;2023-04-30T09:09:39;2.50;;;2.30;;
49175;SDS011;35012;47.200;9.748;2023-04-30T09:12:15;2.10;;;1.90;;
49175;SDS011;35012;47.200;9.748;2023-04-30T09:14:59;4.87;;;2.27;;
49175;SDS011;35012;47.200;9.748;2023-04-30T09:17:33;2.40;;;2.20;;
49175;SDS011;35012;47.200;9.748;2023-04-30T09:20:05;2.20;;;2.00;;
49175;SDS011;35012;47.200;9.748;2023-04-30T09:22:32;3.20;;;2.43;;
49175;SDS011;35012;47.200;9.748;2023-04-30T09:24:58;3.90;;;2.13;;
49175;SDS011;35012;47.200;9.748;2023-04-30T09:27:23;2.47;;;1.97;;
49175;SDS011;35012;47.200;9.748;2023-04-30T09:29:49;2.30;;;2.00;;
49175;SDS011;35012;47.200;9.748;2023-04-30T09:32:14;2.70;;;2.50;;
49175;SDS011;35012;47.200;9.748;2023-04-30T09:34:40;2.47;;;2.20;;
49175;SDS011;35012;47.200;9.748;2023-04-30T09:37:07;2.53;;;2.33;;
49175;SDS011;35012;47.200;9.748;2023-04-30T09:39:33;3.73;;;2.70;;
49175;SDS011;35012;47.200;9.748;2023-04-30T09:42:10;4.97;;;2.50;;
49175;SDS011;35012;47.200;9.748;2023-04-30T09:44:37;4.17;;;2.57;;
49175;SDS011;35012;47.200;9.748;2023-04-30T09:47:03;2.90;;;2.30;;
49175;SDS011;35012;47.200;9.748;2023-04-30T09:49:29;2.47;;;2.27;;
49175;SDS011;35012;47.200;9.748;2023-04-30T09:51:58;3.73;;;2.70;;
49175;SDS011;35012;47.200;9.748;2023-04-30T09:54:28;3.00;;;2.70;;
49175;SDS011;35012;47.200;9.748;2023-04-30T09:56:55;3.17;;;2.87;;
49175;SDS011;35012;47.200;9.748;2023-04-30T09:59:29;3.83;;;2.63;;
49175;SDS011;35012;47.200;9.748;2023-04-30T10:02:03;3.00;;;2.70;;
49175;SDS011;35012;47.200;9.748;2023-04-30T10:04:31;2.70;;;2.50;;
49175;SDS011;35012;47.200;9.748;2023-04-30T10:07:23;3.00;;;2.60;;
49175;SDS011;35012;47.200;9.748;2023-04-30T10:09:53;3.77;;;2.40;;
49175;SDS011;35012;47.200;9.748;2023-04-30T10:12:25;4.97;;;2.80;;
49175;SDS011;35012;47.200;9.748;2023-04-30T10:14:56;2.60;;;2.40;;
49175;SDS011;35012;47.200;9.748;2023-04-30T10:17:25;3.50;;;2.40;;
49175;SDS011;35012;47.200;9.748;2023-04-30T10:19:53;3.57;;;2.30;;
49175;SDS011;35012;47.200;9.748;2023-04-30T10:22:22;2.03;;;1.83;;
49175;SDS011;35012;47.200;9.748;2023-04-30T10:24:47;1.90;;;1.80;;
49175;SDS011;35012;47.200;9.748;2023-04-30T10:27:13;2.67;;;2.33;;
49175;SDS011;35012;47.200;9.748;2023-04-30T10:29:39;2.13;;;1.93;;
49175;SDS011;35012;47.200;9.748;2023-04-30T10:32:04;2.40;;;2.20;;
49175;SDS011;35012;47.200;9.748;2023-04-30T10:37:21;2.60;;;2.40;;
49175;SDS011;35012;47.200;9.748;2023-04-30T10:39:52;3.37;;;2.40;;
49175;SDS011;35012;47.200;9.748;2023-04-30T10:42:18;2.93;;;2.30;;
49175;SDS011;35012;47.200;9.748;2023-04-30T10:44:43;2.63;;;2.10;;
49175;SDS011;35012;47.200;9.748;2023-04-30T10:47:09;2.10;;;1.90;;
49175;SDS011;35012;47.200;9.748;2023-04-30T10:49:34;2.60;;;2.10;;
49175;SDS011;35012;47.200;9.748;2023-04-30T10:52:01;2.50;;;2.30;;
49175;SDS011;35012;47.200;9.748;2023-04-30T10:54:28;2.40;;;2.20;;
49175;SDS011;35012;47.200;9.748;2023-04-30T11:02:40;1.70;;;1.60;;
49175;SDS011;35012;47.200;9.748;2023-04-30T11:07:45;1.93;;;1.57;;
49175;SDS011;35012;47.200;9.748;2023-04-30T11:10:14;1.83;;;1.50;;
49175;SDS011;35012;47.200;9.748;2023-04-30T11:12:40;2.40;;;2.20;;
49175;SDS011;35012;47.200;9.748;2023-04-30T11:15:11;1.80;;;1.70;;
49175;SDS011;35012;47.200;9.748;2023-04-30T11:17:37;1.70;;;1.60;;
49175;SDS011;35012;47.200;9.748;2023-04-30T11:20:03;1.50;;;1.40;;
49175;SDS011;35012;47.200;9.748;2023-04-30T11:22:29;1.80;;;1.50;;
49175;SDS011;35012;47.200;9.748;2023-04-30T11:25:02;2.00;;;1.90;;
49175;SDS011;35012;47.200;9.748;2023-04-30T11:27:34;2.77;;;1.97;;
49175;SDS011;35012;47.200;9.748;2023-04-30T11:30:00;1.47;;;1.37;;
49175;SDS011;35012;47.200;9.748;2023-04-30T11:32:33;3.07;;;1.63;;
49175;SDS011;35012;47.200;9.748;2023-04-30T11:35:03;2.97;;;2.10;;
49175;SDS011;35012;47.200;9.748;2023-04-30T11:37:37;3.00;;;2.20;;
49175;SDS011;35012;47.200;9.748;2023-04-30T11:42:30;2.40;;;2.10;;
49175;SDS011;35012;47.200;9.748;2023-04-30T11:45:04;2.00;;;1.90;;
49175;SDS011;35012;47.200;9.748;2023-04-30T11:50:15;2.23;;;2.00;;
49175;SDS011;35012;47.200;9.748;2023-04-30T11:52:48;2.73;;;2.00;;
49175;SDS011;35012;47.200;9.748;2023-04-30T11:55:17;2.10;;;1.70;;
49175;SDS011;35012;47.200;9.748;2023-04-30T11:57:45;2.10;;;1.90;;
49175;SDS011;35012;47.200;9.748;2023-04-30T12:02:50;2.57;;;1.80;;
49175;SDS011;35012;47.200;9.748;2023-04-30T12:05:19;2.17;;;1.97;;
49175;SDS011;35012;47.200;9.748;2023-04-30T12:10:19;2.47;;;1.90;;
49175;SDS011;35012;47.200;9.748;2023-04-30T12:12:45;3.87;;;1.73;;
49175;SDS011;35012;47.200;9.748;2023-04-30T12:17:41;2.40;;;1.90;;
49175;SDS011;35012;47.200;9.748;2023-04-30T12:20:07;1.60;;;1.50;;
49175;SDS011;35012;47.200;9.748;2023-04-30T12:22:34;1.73;;;1.63;;
49175;SDS011;35012;47.200;9.748;2023-04-30T12:25:04;1.70;;;1.60;;
49175;SDS011;35012;47.200;9.748;2023-04-30T12:27:31;1.63;;;1.53;;
49175;SDS011;35012;47.200;9.748;2023-04-30T12:30:01;2.57;;;1.93;;
49175;SDS011;35012;47.200;9.748;2023-04-30T12:32:28;1.83;;;1.73;;
49175;SDS011;35012;47.200;9.748;2023-04-30T12:34:57;2.83;;;1.50;;
49175;SDS011;35012;47.200;9.748;2023-04-30T12:37:25;3.23;;;1.63;;
49175;SDS011;35012;47.200;9.748;2023-04-30T12:39:51;1.87;;;1.50;;
49175;SDS011;35012;47.200;9.748;2023-04-30T12:42:19;1.63;;;1.52;;
49175;SDS011;35012;47.200;9.748;2023-04-30T12:44:45;2.45;;;1.73;;
49175;SDS011;35012;47.200;9.748;2023-04-30T12:47:10;2.00;;;1.50;;
49175;SDS011;35012;47.200;9.748;2023-04-30T12:49:37;1.52;;;1.20;;
49175;SDS011;35012;47.200;9.748;2023-04-30T12:52:10;1.73;;;1.63;;
49175;SDS011;35012;47.200;9.748;2023-04-30T12:54:37;1.47;;;1.37;;
49175;SDS011;35012;47.200;9.748;2023-04-30T12:57:07;3.80;;;2.10;;
49175;SDS011;35012;47.200;9.748;2023-04-30T13:02:09;2.53;;;1.60;;
49175;SDS011;35012;47.200;9.748;2023-04-30T13:04:36;2.33;;;1.57;;
49175;SDS011;35012;47.200;9.748;2023-04-30T13:07:02;1.70;;;1.60;;
49175;SDS011;35012;47.200;9.748;2023-04-30T13:09:28;1.77;;;1.67;;
49175;SDS011;35012;47.200;9.748;2023-04-30T13:11:55;2.67;;;1.80;;
49175;SDS011;35012;47.200;9.748;2023-04-30T13:14:21;1.70;;;1.60;;
49175;SDS011;35012;47.200;9.748;2023-04-30T13:16:46;1.50;;;1.40;;
49175;SDS011;35012;47.200;9.748;2023-04-30T13:19:12;2.10;;;1.70;;
49175;SDS011;35012;47.200;9.748;2023-04-30T13:21:38;2.37;;;1.60;;
49175;SDS011;35012;47.200;9.748;2023-04-30T13:24:03;1.70;;;1.60;;
49175;SDS011;35012;47.200;9.748;2023-04-30T13:26:29;1.67;;;1.50;;
49175;SDS011;35012;47.200;9.748;2023-04-30T13:28:54;3.87;;;1.80;;
49175;SDS011;35012;47.200;9.748;2023-04-30T13:31:20;1.73;;;1.60;;
49175;SDS011;35012;47.200;9.748;2023-04-30T13:33:46;2.37;;;1.40;;
49175;SDS011;35012;47.200;9.748;2023-04-30T13:36:12;1.63;;;1.53;;
49175;SDS011;35012;47.200;9.748;2023-04-30T13:38:38;1.73;;;1.50;;
49175;SDS011;35012;47.200;9.748;2023-04-30T13:41:04;2.33;;;1.50;;
49175;SDS011;35012;47.200;9.748;2023-04-30T13:43:30;2.83;;;1.53;;
49175;SDS011;35012;47.200;9.748;2023-04-30T13:45:55;1.83;;;1.50;;
49175;SDS011;35012;47.200;9.748;2023-04-30T13:48:22;2.70;;;1.37;;
49175;SDS011;35012;47.200;9.748;2023-04-30T13:50:49;1.40;;;1.30;;
49175;SDS011;35012;47.200;9.748;2023-04-30T13:53:16;2.20;;;2.00;;
49175;SDS011;35012;47.200;9.748;2023-04-30T13:55:41;1.77;;;1.67;;
49175;SDS011;35012;47.200;9.748;2023-04-30T13:58:07;1.60;;;1.50;;
49175;SDS011;35012;47.200;9.748;2023-04-30T14:00:32;1.40;;;1.30;;
49175;SDS011;35012;47.200;9.748;2023-04-30T14:02:58;1.70;;;1.53;;
49175;SDS011;35012;47.200;9.748;2023-04-30T14:05:23;1.43;;;1.33;;
49175;SDS011;35012;47.200;9.748;2023-04-30T14:07:49;1.77;;;1.43;;
49175;SDS011;35012;47.200;9.748;2023-04-30T14:10:14;1.50;;;1.40;;
49175;SDS011;35012;47.200;9.748;2023-04-30T14:12:40;1.50;;;1.40;;
49175;SDS011;35012;47.200;9.748;2023-04-30T14:15:05;1.70;;;1.60;;
49175;SDS011;35012;47.200;9.748;2023-04-30T14:17:32;1.60;;;1.50;;
49175;SDS011;35012;47.200;9.748;2023-04-30T14:19:58;1.40;;;1.30;;
49175;SDS011;35012;47.200;9.748;2023-04-30T14:22:23;2.13;;;1.70;;
49175;SDS011;35012;47.200;9.748;2023-04-30T14:24:50;1.40;;;1.30;;
49175;SDS011;35012;47.200;9.748;2023-04-30T14:27:16;1.90;;;1.80;;
49175;SDS011;35012;47.200;9.748;2023-04-30T14:29:41;1.80;;;1.70;;
49175;SDS011;35012;47.200;9.748;2023-04-30T14:32:07;1.67;;;1.30;;
49175;SDS011;35012;47.200;9.748;2023-04-30T14:34:32;2.50;;;1.87;;
49175;SDS011;35012;47.200;9.748;2023-04-30T14:36:58;1.93;;;1.83;;
49175;SDS011;35012;47.200;9.748;2023-04-30T14:39:25;2.20;;;1.60;;
49175;SDS011;35012;47.200;9.748;2023-04-30T14:41:52;2.40;;;1.87;;
49175;SDS011;35012;47.200;9.748;2023-04-30T14:44:18;4.97;;;1.83;;
49175;SDS011;35012;47.200;9.748;2023-04-30T14:46:43;1.90;;;1.70;;
49175;SDS011;35012;47.200;9.748;2023-04-30T14:49:09;1.80;;;1.70;;
49175;SDS011;35012;47.200;9.748;2023-04-30T14:51:35;2.00;;;1.80;;
49175;SDS011;35012;47.200;9.748;2023-04-30T14:54:01;2.00;;;1.70;;
49175;SDS011;35012;47.200;9.748;2023-04-30T14:56:26;2.70;;;1.90;;
49175;SDS011;35012;47.200;9.748;2023-04-30T14:58:52;2.10;;;1.90;;
49175;SDS011;35012;47.200;9.748;2023-04-30T15:01:17;2.23;;;1.80;;
49175;SDS011;35012;47.200;9.748;2023-04-30T15:03:43;2.73;;;1.90;;
49175;SDS011;35012;47.200;9.748;2023-04-30T15:06:09;1.70;;;1.60;;
49175;SDS011;35012;47.200;9.748;2023-04-30T15:08:34;3.33;;;1.60;;
49175;SDS011;35012;47.200;9.748;2023-04-30T15:11:00;3.10;;;1.80;;
49175;SDS011;35012;47.200;9.748;2023-04-30T15:13:26;1.70;;;1.60;;
49175;SDS011;35012;47.200;9.748;2023-04-30T15:15:51;2.13;;;1.83;;
49175;SDS011;35012;47.200;9.748;2023-04-30T15:18:17;1.90;;;1.70;;
49175;SDS011;35012;47.200;9.748;2023-04-30T15:20:42;1.80;;;1.70;;
49175;SDS011;35012;47.200;9.748;2023-04-30T15:23:08;2.13;;;1.93;;
49175;SDS011;35012;47.200;9.748;2023-04-30T15:25:33;1.87;;;1.77;;
49175;SDS011;35012;47.200;9.748;2023-04-30T15:27:59;2.13;;;1.97;;
49175;SDS011;35012;47.200;9.748;2023-04-30T15:30:25;1.73;;;1.63;;